Time,TemperatureF,DewpointF,PressureIn,WindDirection,WindDirectionDegrees,WindSpeedMPH,WindSpeedGustMPH,Humidity,HourlyPrecipIn,Conditions,Clouds,dailyrainin,SoftwareType,DateUTC
2013-01-23 00:03:00,45.8,35.6,29.87,NNE,22,0.0,0.0,67,0.00,,,0.00,WUHU21623XXSP,2013-01-23 08:03:00,
2013-01-23 00:08:00,46.0,35.8,29.87,NNE,22,0.0,0.0,67,0.00,,,0.00,WUHU21623XXSP,2013-01-23 08:08:00,
2013-01-23 00:13:00,45.8,35.2,29.86,NNE,22,0.0,0.0,66,0.00,,,0.00,WUHU21623XXSP,2013-01-23 08:13:00,
2013-01-23 00:18:00,45.7,35.1,29.85,NNE,22,0.0,0.0,66,0.00,,,0.00,WUHU21623XXSP,2013-01-23 08:18:00,
2013-01-23 00:23:00,45.5,34.9,29.85,NNE,22,0.0,0.0,66,0.00,,,0.00,WUHU21623XXSP,2013-01-23 08:23:00,
2013-01-23 00:28:00,45.1,34.5,29.86,NNE,22,0.0,0.0,66,0.00,,,0.00,WUHU21623XXSP,2013-01-23 08:28:00,
2013-01-23 00:33:00,45.1,34.5,29.85,NNE,22,0.0,0.0,66,0.00,,,0.00,WUHU21623XXSP,2013-01-23 08:33:00,
2013-01-23 00:38:00,44.9,34.7,29.85,NNE,22,0.0,0.0,67,0.00,,,0.00,WUHU21623XXSP,2013-01-23 08:38:00,
2013-01-23 00:43:00,44.8,34.6,29.85,NNE,22,0.0,0.0,67,0.00,,,0.00,WUHU21623XXSP,2013-01-23 08:43:00,
2013-01-23 00:48:00,44.8,34.6,29.86,West,270,0.0,0.0,67,0.00,,,0.00,WUHU21623XXSP,2013-01-23 08:48:00,
2013-01-23 00:53:00,44.6,34.4,29.86,West,270,0.0,0.0,67,0.00,,,0.00,WUHU21623XXSP,2013-01-23 08:53:00,
2013-01-23 00:58:00,44.4,34.2,29.85,West,270,0.0,0.0,67,0.00,,,0.00,WUHU21623XXSP,2013-01-23 08:58:00,
2013-01-23 01:03:00,44.2,34.0,29.85,WNW,292,0.0,0.0,67,0.00,,,0.00,WUHU21623XXSP,2013-01-23 09:03:00,
2013-01-23 01:08:00,44.2,34.0,29.85,NNW,337,0.0,0.0,67,0.00,,,0.00,WUHU21623XXSP,2013-01-23 09:08:00,
2013-01-23 01:13:00,44.0,33.8,29.85,NNW,337,0.0,0.0,67,0.00,,,0.00,WUHU21623XXSP,2013-01-23 09:13:00,
2013-01-23 01:18:00,44.2,34.0,29.85,NNW,337,0.0,0.0,67,0.00,,,0.00,WUHU21623XXSP,2013-01-23 09:18:00,
2013-01-23 01:23:00,44.6,34.4,29.86,NNW,337,0.0,0.0,67,0.00,,,0.00,WUHU21623XXSP,2013-01-23 09:23:00,
2013-01-23 01:28:00,44.8,34.6,29.85,NNW,337,0.0,0.0,67,0.00,,,0.00,WUHU21623XXSP,2013-01-23 09:28:00,
2013-01-23 01:33:00,44.8,34.6,29.84,NNW,337,0.0,0.0,67,0.00,,,0.00,WUHU21623XXSP,2013-01-23 09:33:00,
2013-01-23 01:38:00,44.6,34.4,29.84,NNW,337,0.0,0.0,67,0.00,,,0.00,WUHU21623XXSP,2013-01-23 09:38:00,
2013-01-23 01:43:00,44.6,34.4,29.84,NNW,337,0.0,0.0,67,0.00,,,0.00,WUHU21623XXSP,2013-01-23 09:43:00,
2013-01-23 01:48:00,44.2,34.0,29.84,NNW,337,0.0,0.0,67,0.00,,,0.00,WUHU21623XXSP,2013-01-23 09:48:00,
2013-01-23 01:53:00,44.6,34.8,29.84,NW,315,0.0,0.0,68,0.00,,,0.00,WUHU21623XXSP,2013-01-23 09:53:00,
2013-01-23 01:58:00,44.6,34.4,29.84,NW,315,0.0,0.0,67,0.00,,,0.00,WUHU21623XXSP,2013-01-23 09:58:00,
2013-01-23 02:03:00,44.2,34.0,29.84,NW,315,0.0,0.0,67,0.00,,,0.00,WUHU21623XXSP,2013-01-23 10:03:00,
2013-01-23 02:08:00,44.6,34.4,29.84,NW,315,0.0,0.0,67,0.00,,,0.00,WUHU21623XXSP,2013-01-23 10:08:00,
2013-01-23 02:13:00,44.6,34.4,29.84,NW,315,0.0,0.0,67,0.00,,,0.00,WUHU21623XXSP,2013-01-23 10:13:00,
2013-01-23 02:18:00,44.2,34.0,29.84,NW,315,0.0,0.0,67,0.00,,,0.00,WUHU21623XXSP,2013-01-23 10:18:00,
2013-01-23 02:23:00,44.2,34.0,29.83,NW,315,0.0,0.0,67,0.00,,,0.00,WUHU21623XXSP,2013-01-23 10:23:00,
2013-01-23 02:28:00,44.2,34.0,29.84,NW,315,0.0,0.0,67,0.00,,,0.00,WUHU21623XXSP,2013-01-23 10:28:00,
2013-01-23 02:33:00,44.0,33.8,29.83,NW,315,0.0,0.0,67,0.00,,,0.00,WUHU21623XXSP,2013-01-23 10:33:00,
2013-01-23 02:38:00,44.0,33.8,29.83,NW,315,0.0,0.0,67,0.00,,,0.00,WUHU21623XXSP,2013-01-23 10:38:00,
2013-01-23 02:43:00,44.0,33.8,29.83,NW,315,0.0,0.0,67,0.00,,,0.00,WUHU21623XXSP,2013-01-23 10:43:00,
2013-01-23 02:48:00,44.0,33.8,29.83,NW,315,0.0,0.0,67,0.00,,,0.00,WUHU21623XXSP,2013-01-23 10:48:00,
2013-01-23 02:53:00,44.0,34.2,29.83,SSW,202,0.0,0.0,68,0.00,,,0.00,WUHU21623XXSP,2013-01-23 10:53:00,
2013-01-23 02:58:00,43.7,33.9,29.83,South,180,0.0,0.0,68,0.00,,,0.00,WUHU21623XXSP,2013-01-23 10:58:00,
2013-01-23 03:03:00,43.5,34.1,29.83,South,180,0.0,0.0,69,0.00,,,0.00,WUHU21623XXSP,2013-01-23 11:03:00,
2013-01-23 03:09:00,43.3,33.9,29.82,South,180,0.0,0.0,69,0.00,,,0.00,WUHU21623XXSP,2013-01-23 11:09:00,
2013-01-23 03:14:00,43.3,33.9,29.82,South,180,0.0,0.0,69,0.00,,,0.00,WUHU21623XXSP,2013-01-23 11:14:00,
2013-01-23 03:19:00,43.3,33.9,29.82,South,180,0.0,0.0,69,0.00,,,0.00,WUHU21623XXSP,2013-01-23 11:19:00,
2013-01-23 03:24:00,43.1,33.7,29.82,South,180,0.0,0.0,69,0.00,,,0.00,WUHU21623XXSP,2013-01-23 11:24:00,
2013-01-23 03:29:00,43.1,33.7,29.81,NNW,337,0.0,0.0,69,0.00,,,0.00,WUHU21623XXSP,2013-01-23 11:29:00,
2013-01-23 03:34:00,43.1,33.7,29.82,NNW,337,0.0,0.0,69,0.00,,,0.00,WUHU21623XXSP,2013-01-23 11:34:00,
2013-01-23 03:39:00,43.3,33.9,29.81,NNW,337,0.0,0.0,69,0.00,,,0.00,WUHU21623XXSP,2013-01-23 11:39:00,
2013-01-23 03:44:00,43.7,34.6,29.82,NNW,337,0.0,0.0,70,0.00,,,0.00,WUHU21623XXSP,2013-01-23 11:44:00,
2013-01-23 03:49:00,44.0,34.6,29.81,WNW,292,0.0,0.0,69,0.00,,,0.00,WUHU21623XXSP,2013-01-23 11:49:00,
2013-01-23 03:54:00,44.0,34.2,29.81,WNW,292,0.0,0.0,68,0.00,,,0.00,WUHU21623XXSP,2013-01-23 11:54:00,
2013-01-23 03:59:00,43.7,33.9,29.81,WNW,292,0.0,0.0,68,0.00,,,0.00,WUHU21623XXSP,2013-01-23 11:59:00,
2013-01-23 04:04:00,43.5,34.1,29.81,WNW,292,0.0,0.0,69,0.00,,,0.00,WUHU21623XXSP,2013-01-23 12:04:00,
2013-01-23 04:09:00,43.5,34.1,29.81,WNW,292,0.0,0.0,69,0.00,,,0.00,WUHU21623XXSP,2013-01-23 12:09:00,
2013-01-23 04:14:00,43.3,33.9,29.81,WNW,292,0.0,0.0,69,0.00,,,0.00,WUHU21623XXSP,2013-01-23 12:14:00,
2013-01-23 04:19:00,43.1,33.7,29.81,WNW,292,0.0,0.0,69,0.00,,,0.00,WUHU21623XXSP,2013-01-23 12:19:00,
2013-01-23 04:24:00,43.1,33.7,29.80,WNW,292,0.0,0.0,69,0.00,,,0.00,WUHU21623XXSP,2013-01-23 12:24:00,
2013-01-23 04:29:00,43.1,33.7,29.80,WNW,292,0.0,0.0,69,0.00,,,0.00,WUHU21623XXSP,2013-01-23 12:29:00,
2013-01-23 04:34:00,43.1,33.7,29.80,WNW,292,0.0,0.0,69,0.00,,,0.00,WUHU21623XXSP,2013-01-23 12:34:00,
2013-01-23 04:39:00,43.1,33.3,29.80,WNW,292,0.0,0.0,68,0.00,,,0.00,WUHU21623XXSP,2013-01-23 12:39:00,
2013-01-23 04:44:00,43.1,33.7,29.80,WNW,292,0.0,0.0,69,0.00,,,0.00,WUHU21623XXSP,2013-01-23 12:44:00,
2013-01-23 04:49:00,43.1,33.3,29.80,WNW,292,0.0,0.0,68,0.00,,,0.00,WUHU21623XXSP,2013-01-23 12:49:00,
2013-01-23 04:54:00,43.1,33.3,29.80,WNW,292,0.0,0.0,68,0.00,,,0.00,WUHU21623XXSP,2013-01-23 12:54:00,
2013-01-23 04:59:00,43.1,33.3,29.80,WNW,292,0.0,0.0,68,0.00,,,0.00,WUHU21623XXSP,2013-01-23 12:59:00,
2013-01-23 05:04:00,43.1,33.3,29.80,WNW,292,0.0,0.0,68,0.00,,,0.00,WUHU21623XXSP,2013-01-23 13:04:00,
2013-01-23 05:09:00,43.0,33.6,29.79,WNW,292,0.0,0.0,69,0.00,,,0.00,WUHU21623XXSP,2013-01-23 13:09:00,
2013-01-23 05:14:00,43.0,33.2,29.79,WNW,292,0.0,0.0,68,0.00,,,0.00,WUHU21623XXSP,2013-01-23 13:14:00,
2013-01-23 05:19:00,43.0,33.2,29.79,WNW,292,0.0,0.0,68,0.00,,,0.00,WUHU21623XXSP,2013-01-23 13:19:00,
2013-01-23 05:24:00,43.0,33.6,29.79,NNE,22,0.0,0.0,69,0.00,,,0.00,WUHU21623XXSP,2013-01-23 13:24:00,
2013-01-23 05:29:00,42.6,33.2,29.78,NNE,22,0.0,0.0,69,0.00,,,0.00,WUHU21623XXSP,2013-01-23 13:29:00,
2013-01-23 05:34:00,42.4,33.4,29.77,NNE,22,0.0,0.0,70,0.00,,,0.00,WUHU21623XXSP,2013-01-23 13:34:00,
2013-01-23 05:39:00,42.4,33.7,29.78,NNE,22,0.0,0.0,71,0.00,,,0.00,WUHU21623XXSP,2013-01-23 13:39:00,
2013-01-23 05:44:00,42.4,33.7,29.79,NNE,22,0.0,0.0,71,0.00,,,0.00,WUHU21623XXSP,2013-01-23 13:44:00,
2013-01-23 05:49:00,42.6,34.3,29.79,NNE,22,0.0,0.0,72,0.00,,,0.00,WUHU21623XXSP,2013-01-23 13:49:00,
2013-01-23 05:54:00,42.8,34.1,29.79,NNE,22,0.0,0.0,71,0.00,,,0.00,WUHU21623XXSP,2013-01-23 13:54:00,
2013-01-23 05:59:00,42.8,34.1,29.78,NNE,22,0.0,0.0,71,0.00,,,0.00,WUHU21623XXSP,2013-01-23 13:59:00,
2013-01-23 06:04:00,42.8,34.1,29.78,NNE,22,0.0,0.0,71,0.00,,,0.00,WUHU21623XXSP,2013-01-23 14:04:00,
2013-01-23 06:09:00,43.1,34.4,29.78,NNE,22,0.0,0.0,71,0.00,,,0.00,WUHU21623XXSP,2013-01-23 14:09:00,
2013-01-23 06:14:00,43.3,34.6,29.78,North,0,0.0,0.0,71,0.00,,,0.00,WUHU21623XXSP,2013-01-23 14:14:00,
2013-01-23 06:19:00,43.7,34.6,29.79,WNW,292,0.0,0.0,70,0.00,,,0.00,WUHU21623XXSP,2013-01-23 14:19:00,
2013-01-23 06:24:00,43.7,34.3,29.79,WNW,292,0.0,0.0,69,0.00,,,0.00,WUHU21623XXSP,2013-01-23 14:24:00,
2013-01-23 06:29:00,43.5,34.1,29.81,WNW,292,0.0,0.0,69,0.00,,,0.00,WUHU21623XXSP,2013-01-23 14:29:00,
2013-01-23 06:34:00,43.3,34.3,29.81,NNW,337,0.0,0.0,70,0.00,,,0.00,WUHU21623XXSP,2013-01-23 14:34:00,
2013-01-23 06:39:00,43.1,34.1,29.80,North,0,0.0,3.6,70,0.00,,,0.00,WUHU21623XXSP,2013-01-23 14:39:00,
2013-01-23 06:44:00,43.1,34.4,29.80,NNW,337,0.0,3.6,71,0.00,,,0.00,WUHU21623XXSP,2013-01-23 14:44:00,
2013-01-23 06:49:00,43.1,34.4,29.80,NNW,337,0.0,0.0,71,0.00,,,0.00,WUHU21623XXSP,2013-01-23 14:49:00,
2013-01-23 06:54:00,43.3,34.6,29.80,NNW,337,0.0,0.0,71,0.00,,,0.00,WUHU21623XXSP,2013-01-23 14:54:00,
2013-01-23 06:59:00,43.1,34.4,29.80,NNW,337,0.0,0.0,71,0.00,,,0.00,WUHU21623XXSP,2013-01-23 14:59:00,
2013-01-23 07:04:00,43.1,34.4,29.81,NNW,337,0.0,0.0,71,0.00,,,0.00,WUHU21623XXSP,2013-01-23 15:04:00,
2013-01-23 07:09:00,43.0,34.3,29.81,NNE,22,0.0,0.0,71,0.00,,,0.00,WUHU21623XXSP,2013-01-23 15:09:00,
2013-01-23 07:14:00,43.0,34.7,29.81,ENE,67,0.0,0.0,72,0.00,,,0.00,WUHU21623XXSP,2013-01-23 15:14:00,
2013-01-23 07:19:00,43.0,35.0,29.81,ENE,67,0.0,0.0,73,0.00,,,0.00,WUHU21623XXSP,2013-01-23 15:19:00,
2013-01-23 07:24:00,43.0,35.0,29.81,ENE,67,0.0,0.0,73,0.00,,,0.00,WUHU21623XXSP,2013-01-23 15:24:00,
2013-01-23 07:29:00,43.0,35.0,29.80,ENE,67,0.0,0.0,73,0.00,,,0.00,WUHU21623XXSP,2013-01-23 15:29:00,
2013-01-23 07:34:00,43.0,35.3,29.80,ENE,67,0.0,0.0,74,0.00,,,0.00,WUHU21623XXSP,2013-01-23 15:34:00,
2013-01-23 07:39:00,43.0,35.3,29.80,ENE,67,0.0,0.0,74,0.00,,,0.00,WUHU21623XXSP,2013-01-23 15:39:00,
2013-01-23 07:44:00,43.0,35.3,29.80,ENE,67,0.0,0.0,74,0.00,,,0.00,WUHU21623XXSP,2013-01-23 15:44:00,
2013-01-23 07:49:00,43.0,35.3,29.80,ENE,67,0.0,0.0,74,0.00,,,0.00,WUHU21623XXSP,2013-01-23 15:49:00,
2013-01-23 07:54:00,43.0,35.7,29.80,ENE,67,0.0,0.0,75,0.00,,,0.00,WUHU21623XXSP,2013-01-23 15:54:00,
2013-01-23 07:59:00,43.0,35.7,29.81,ENE,67,0.0,0.0,75,0.00,,,0.00,WUHU21623XXSP,2013-01-23 15:59:00,
2013-01-23 08:04:00,43.1,35.8,29.81,ENE,67,0.0,0.0,75,0.00,,,0.00,WUHU21623XXSP,2013-01-23 16:04:00,
2013-01-23 08:09:00,43.3,35.6,29.82,SSE,157,0.0,0.0,74,0.00,,,0.00,WUHU21623XXSP,2013-01-23 16:09:00,
2013-01-23 08:14:00,43.5,35.5,29.83,SSE,157,0.0,0.0,73,0.00,,,0.00,WUHU21623XXSP,2013-01-23 16:14:00,
2013-01-23 08:19:00,43.5,35.5,29.83,SSE,157,0.0,0.0,73,0.00,,,0.00,WUHU21623XXSP,2013-01-23 16:19:00,
2013-01-23 08:24:00,43.5,35.1,29.83,East,90,0.0,0.0,72,0.00,,,0.00,WUHU21623XXSP,2013-01-23 16:24:00,
2013-01-23 08:29:00,43.7,35.3,29.83,ENE,67,0.0,0.0,72,0.00,,,0.00,WUHU21623XXSP,2013-01-23 16:29:00,
2013-01-23 08:34:00,44.9,37.8,29.83,NE,45,0.0,0.0,76,0.00,,,0.00,WUHU21623XXSP,2013-01-23 16:34:00,
2013-01-23 08:39:00,50.3,43.8,29.82,NNE,22,0.0,0.0,78,0.00,,,0.00,WUHU21623XXSP,2013-01-23 16:39:00,
2013-01-23 08:44:00,53.6,44.9,29.83,NNE,22,0.0,0.0,72,0.00,,,0.00,WUHU21623XXSP,2013-01-23 16:44:00,
2013-01-23 08:49:00,53.2,42.6,29.83,NNE,22,0.0,0.0,67,0.00,,,0.00,WUHU21623XXSP,2013-01-23 16:49:00,
2013-01-23 08:54:00,53.0,42.5,29.82,NNE,22,0.0,0.0,67,0.00,,,0.00,WUHU21623XXSP,2013-01-23 16:54:00,
2013-01-23 08:59:00,52.7,41.8,29.83,NNE,22,0.0,0.0,66,0.00,,,0.00,WUHU21623XXSP,2013-01-23 16:59:00,
2013-01-23 09:04:00,52.9,42.4,29.83,East,90,0.0,0.0,67,0.00,,,0.00,WUHU21623XXSP,2013-01-23 17:04:00,
2013-01-23 09:09:00,53.4,42.8,29.84,East,90,0.0,0.0,67,0.00,,,0.00,WUHU21623XXSP,2013-01-23 17:09:00,
2013-01-23 09:14:00,53.8,42.8,29.85,East,90,0.0,0.0,66,0.00,,,0.00,WUHU21623XXSP,2013-01-23 17:14:00,
2013-01-23 09:19:00,53.2,42.3,29.85,East,90,0.0,0.0,66,0.00,,,0.00,WUHU21623XXSP,2013-01-23 17:19:00,
2013-01-23 09:24:00,53.0,41.7,29.85,East,90,0.0,0.0,65,0.00,,,0.00,WUHU21623XXSP,2013-01-23 17:24:00,
2013-01-23 09:29:00,53.2,42.3,29.85,East,90,0.0,0.0,66,0.00,,,0.00,WUHU21623XXSP,2013-01-23 17:29:00,
2013-01-23 09:34:00,53.9,42.9,29.86,East,90,0.0,0.0,66,0.00,,,0.00,WUHU21623XXSP,2013-01-23 17:34:00,
2013-01-23 09:39:00,54.5,42.7,29.86,East,90,0.0,0.0,64,0.00,,,0.00,WUHU21623XXSP,2013-01-23 17:39:00,
2013-01-23 09:44:00,53.0,40.9,29.86,East,90,0.0,0.0,63,0.00,,,0.00,WUHU21623XXSP,2013-01-23 17:44:00,
2013-01-23 09:49:00,50.9,39.7,29.86,East,90,0.0,0.0,65,0.00,,,0.00,WUHU21623XXSP,2013-01-23 17:49:00,
2013-01-23 09:54:00,50.0,39.2,29.86,East,90,0.0,0.0,66,0.00,,,0.00,WUHU21623XXSP,2013-01-23 17:54:00,
2013-01-23 09:59:00,49.1,38.7,29.87,East,90,0.0,0.0,67,0.00,,,0.00,WUHU21623XXSP,2013-01-23 17:59:00,
2013-01-23 10:04:00,48.5,38.5,29.86,ENE,67,0.0,0.0,68,0.00,,,0.00,WUHU21623XXSP,2013-01-23 18:04:00,
2013-01-23 10:09:00,48.2,38.6,29.87,East,90,0.0,0.0,69,0.00,,,0.00,WUHU21623XXSP,2013-01-23 18:09:00,
2013-01-23 10:14:00,48.0,38.8,29.87,East,90,0.0,0.0,70,0.00,,,0.00,WUHU21623XXSP,2013-01-23 18:14:00,
2013-01-23 10:19:00,47.8,38.9,29.87,East,90,0.0,0.0,71,0.00,,,0.00,WUHU21623XXSP,2013-01-23 18:19:00,
2013-01-23 10:24:00,47.8,38.9,29.86,East,90,0.0,0.0,71,0.00,,,0.00,WUHU21623XXSP,2013-01-23 18:24:00,
2013-01-23 10:29:00,47.8,38.9,29.86,East,90,0.0,0.0,71,0.00,,,0.00,WUHU21623XXSP,2013-01-23 18:29:00,
2013-01-23 10:34:00,47.8,39.3,29.86,East,90,0.0,0.0,72,0.00,,,0.00,WUHU21623XXSP,2013-01-23 18:34:00,
2013-01-23 10:39:00,47.8,39.3,29.86,East,90,0.0,0.0,72,0.00,,,0.00,WUHU21623XXSP,2013-01-23 18:39:00,
2013-01-23 10:44:00,47.8,39.3,29.87,East,90,0.0,0.0,72,0.00,,,0.00,WUHU21623XXSP,2013-01-23 18:44:00,
2013-01-23 10:49:00,47.8,39.3,29.88,East,90,0.0,0.0,72,0.00,,,0.00,WUHU21623XXSP,2013-01-23 18:49:00,
2013-01-23 10:54:00,47.8,39.6,29.88,SE,135,0.0,0.0,73,0.00,,,0.00,WUHU21623XXSP,2013-01-23 18:54:00,
2013-01-23 10:59:00,48.0,39.8,29.87,SE,135,0.0,0.0,73,0.00,,,0.00,WUHU21623XXSP,2013-01-23 18:59:00,
2013-01-23 11:04:00,48.2,40.0,29.87,East,90,0.0,0.0,73,0.00,,,0.00,WUHU21623XXSP,2013-01-23 19:04:00,
2013-01-23 11:09:00,48.4,40.2,29.87,NNE,22,0.0,0.0,73,0.00,,,0.00,WUHU21623XXSP,2013-01-23 19:09:00,
2013-01-23 11:14:00,48.5,40.3,29.87,NNE,22,0.0,0.0,73,0.00,,,0.00,WUHU21623XXSP,2013-01-23 19:14:00,
2013-01-23 11:19:00,49.1,40.9,29.87,WNW,292,0.0,0.0,73,0.00,,,0.00,WUHU21623XXSP,2013-01-23 19:19:00,
2013-01-23 11:24:00,49.4,41.2,29.87,West,270,0.0,0.0,73,0.00,,,0.00,WUHU21623XXSP,2013-01-23 19:24:00,
2013-01-23 11:29:00,49.4,41.2,29.87,West,270,0.0,0.0,73,0.00,,,0.00,WUHU21623XXSP,2013-01-23 19:29:00,
2013-01-23 11:34:00,49.6,41.4,29.87,West,270,0.0,0.0,73,0.00,,,0.00,WUHU21623XXSP,2013-01-23 19:34:00,
2013-01-23 11:39:00,49.6,41.0,29.86,West,270,0.0,0.0,72,0.00,,,0.00,WUHU21623XXSP,2013-01-23 19:39:00,
2013-01-23 11:44:00,49.6,41.0,29.87,West,270,0.0,0.0,72,0.00,,,0.00,WUHU21623XXSP,2013-01-23 19:44:00,
2013-01-23 11:49:00,49.6,41.0,29.86,West,270,0.0,0.0,72,0.00,,,0.00,WUHU21623XXSP,2013-01-23 19:49:00,
2013-01-23 11:54:00,49.6,41.0,29.86,WSW,247,0.0,0.0,72,0.00,,,0.00,WUHU21623XXSP,2013-01-23 19:54:00,
2013-01-23 11:59:00,49.6,41.0,29.86,SW,225,0.0,0.0,72,0.00,,,0.00,WUHU21623XXSP,2013-01-23 19:59:00,
2013-01-23 12:04:00,49.6,41.4,29.86,SW,225,0.0,0.0,73,0.00,,,0.00,WUHU21623XXSP,2013-01-23 20:04:00,
2013-01-23 12:09:00,49.8,41.6,29.87,SW,225,0.0,0.0,73,0.00,,,0.00,WUHU21623XXSP,2013-01-23 20:09:00,
2013-01-23 12:14:00,50.0,41.8,29.87,WNW,292,0.0,0.0,73,0.00,,,0.00,WUHU21623XXSP,2013-01-23 20:14:00,
2013-01-23 12:19:00,50.0,41.8,29.86,SW,225,0.0,0.0,73,0.00,,,0.00,WUHU21623XXSP,2013-01-23 20:19:00,
2013-01-23 12:24:00,50.0,41.8,29.86,SW,225,0.0,0.0,73,0.00,,,0.00,WUHU21623XXSP,2013-01-23 20:24:00,
2013-01-23 12:29:00,50.2,42.0,29.86,SSE,157,0.0,0.0,73,0.00,,,0.00,WUHU21623XXSP,2013-01-23 20:29:00,
2013-01-23 12:34:00,50.2,42.0,29.87,SSE,157,0.0,0.0,73,0.00,,,0.00,WUHU21623XXSP,2013-01-23 20:34:00,
2013-01-23 12:39:00,50.2,42.0,29.87,SSE,157,0.0,0.0,73,0.00,,,0.00,WUHU21623XXSP,2013-01-23 20:39:00,
2013-01-23 12:44:00,50.3,42.1,29.86,ENE,67,0.0,0.0,73,0.00,,,0.00,WUHU21623XXSP,2013-01-23 20:44:00,
2013-01-23 12:49:00,50.3,42.1,29.85,NE,45,0.0,0.0,73,0.00,,,0.00,WUHU21623XXSP,2013-01-23 20:49:00,
2013-01-23 12:54:00,50.5,42.3,29.85,West,270,0.0,0.0,73,0.00,,,0.00,WUHU21623XXSP,2013-01-23 20:54:00,
2013-01-23 12:59:00,50.5,42.3,29.85,WSW,247,0.0,0.0,73,0.00,,,0.00,WUHU21623XXSP,2013-01-23 20:59:00,
2013-01-23 13:04:00,50.5,42.3,29.84,NW,315,0.0,0.0,73,0.00,,,0.00,WUHU21623XXSP,2013-01-23 21:04:00,
2013-01-23 13:09:00,50.5,42.3,29.85,NW,315,0.0,0.0,73,0.00,,,0.00,WUHU21623XXSP,2013-01-23 21:09:00,
2013-01-23 13:14:00,50.5,42.3,29.86,SE,135,0.0,0.0,73,0.00,,,0.00,WUHU21623XXSP,2013-01-23 21:14:00,
2013-01-23 13:19:00,50.5,42.6,29.86,SE,135,0.0,0.0,74,0.00,,,0.00,WUHU21623XXSP,2013-01-23 21:19:00,
2013-01-23 13:24:00,50.5,42.6,29.86,SE,135,0.0,0.0,74,0.00,,,0.00,WUHU21623XXSP,2013-01-23 21:24:00,
2013-01-23 13:29:00,50.3,42.4,29.86,SW,225,0.0,0.0,74,0.00,,,0.00,WUHU21623XXSP,2013-01-23 21:29:00,
2013-01-23 13:34:00,50.3,42.4,29.86,SW,225,0.0,0.0,74,0.00,,,0.00,WUHU21623XXSP,2013-01-23 21:34:00,
2013-01-23 13:39:00,50.3,42.4,29.86,SW,225,0.0,0.0,74,0.00,,,0.00,WUHU21623XXSP,2013-01-23 21:39:00,
2013-01-23 13:44:00,50.3,42.4,29.86,SW,225,0.0,0.0,74,0.00,,,0.00,WUHU21623XXSP,2013-01-23 21:44:00,
2013-01-23 13:49:00,50.3,42.4,29.86,WNW,292,0.0,0.0,74,0.00,,,0.00,WUHU21623XXSP,2013-01-23 21:49:00,
2013-01-23 13:54:00,50.3,42.4,29.86,WNW,292,0.0,0.0,74,0.00,,,0.00,WUHU21623XXSP,2013-01-23 21:54:00,
2013-01-23 13:59:00,50.3,42.8,29.86,WNW,292,0.0,0.0,75,0.00,,,0.00,WUHU21623XXSP,2013-01-23 21:59:00,
2013-01-23 14:04:00,50.3,42.8,29.86,WNW,292,0.0,0.0,75,0.00,,,0.00,WUHU21623XXSP,2013-01-23 22:04:00,
2013-01-23 14:09:00,50.3,42.8,29.85,WNW,292,0.0,0.0,75,0.00,,,0.00,WUHU21623XXSP,2013-01-23 22:09:00,
2013-01-23 14:14:00,50.3,42.8,29.85,WNW,292,0.0,0.0,75,0.00,,,0.00,WUHU21623XXSP,2013-01-23 22:14:00,
2013-01-23 14:19:00,50.5,42.9,29.84,WNW,292,0.0,0.0,75,0.00,,,0.00,WUHU21623XXSP,2013-01-23 22:19:00,
2013-01-23 14:24:00,50.5,42.9,29.84,WNW,292,0.0,0.0,75,0.00,,,0.00,WUHU21623XXSP,2013-01-23 22:24:00,
2013-01-23 14:29:00,50.5,42.9,29.84,North,0,0.0,0.0,75,0.00,,,0.00,WUHU21623XXSP,2013-01-23 22:29:00,
2013-01-23 14:34:00,50.3,43.1,29.84,SE,135,0.0,0.0,76,0.00,,,0.00,WUHU21623XXSP,2013-01-23 22:34:00,
2013-01-23 14:39:00,50.5,43.3,29.84,SE,135,8.1,9.6,76,0.00,,,0.00,WUHU21623XXSP,2013-01-23 22:39:00,
2013-01-23 14:44:00,50.5,43.3,29.84,SE,135,0.0,9.6,76,0.00,,,0.00,WUHU21623XXSP,2013-01-23 22:44:00,
2013-01-23 14:49:00,50.3,43.4,29.84,SE,135,0.0,7.6,77,0.00,,,0.00,WUHU21623XXSP,2013-01-23 22:49:00,
2013-01-23 14:54:00,50.3,43.8,29.84,SE,135,0.0,6.4,78,0.00,,,0.00,WUHU21623XXSP,2013-01-23 22:54:00,
2013-01-23 14:59:00,50.3,43.8,29.83,SE,135,0.0,0.0,78,0.00,,,0.00,WUHU21623XXSP,2013-01-23 22:59:00,
2013-01-23 15:04:00,50.3,43.8,29.83,SE,135,0.0,0.0,78,0.00,,,0.00,WUHU21623XXSP,2013-01-23 23:04:00,
2013-01-23 15:09:00,50.3,43.8,29.84,SW,225,0.0,5.4,78,0.00,,,0.00,WUHU21623XXSP,2013-01-23 23:09:00,
2013-01-23 15:14:00,50.3,43.8,29.84,SW,225,4.7,5.4,78,0.00,,,0.00,WUHU21623XXSP,2013-01-23 23:14:00,
2013-01-23 15:19:00,50.3,43.8,29.84,SW,225,3.8,4.9,78,0.00,,,0.00,WUHU21623XXSP,2013-01-23 23:19:00,
2013-01-23 15:24:00,50.3,43.8,29.84,WSW,247,1.6,4.0,78,0.00,,,0.00,WUHU21623XXSP,2013-01-23 23:24:00,
2013-01-23 15:29:00,50.3,43.4,29.84,WSW,247,0.0,4.0,77,0.00,,,0.00,WUHU21623XXSP,2013-01-23 23:29:00,
2013-01-23 15:34:00,50.3,43.4,29.85,West,270,0.0,2.7,77,0.00,,,0.00,WUHU21623XXSP,2013-01-23 23:34:00,
2013-01-23 15:39:00,50.5,43.6,29.84,West,270,0.0,0.0,77,0.00,,,0.00,WUHU21623XXSP,2013-01-23 23:39:00,
2013-01-23 15:44:00,50.5,43.6,29.84,WNW,292,1.6,3.4,77,0.00,,,0.00,WUHU21623XXSP,2013-01-23 23:44:00,
2013-01-23 15:49:00,50.5,43.6,29.84,NNW,337,3.4,4.3,77,0.00,,,0.00,WUHU21623XXSP,2013-01-23 23:49:00,
2013-01-23 15:54:00,50.3,43.4,29.84,North,0,4.7,6.0,77,0.00,,,0.00,WUHU21623XXSP,2013-01-23 23:54:00,
2013-01-23 15:59:00,50.3,43.4,29.84,North,0,4.7,6.0,77,0.00,,,0.00,WUHU21623XXSP,2013-01-23 23:59:00,
2013-01-23 16:04:00,50.3,43.4,29.85,WNW,292,6.0,7.4,77,0.00,,,0.00,WUHU21623XXSP,2013-01-24 00:04:00,
2013-01-23 16:09:00,50.5,43.3,29.85,West,270,7.2,8.3,76,0.00,,,0.00,WUHU21623XXSP,2013-01-24 00:09:00,
2013-01-23 16:14:00,50.5,43.3,29.84,WNW,292,6.7,9.4,76,0.00,,,0.00,WUHU21623XXSP,2013-01-24 00:14:00,
2013-01-23 16:19:00,50.5,43.3,29.86,WNW,292,3.1,9.4,76,0.00,,,0.00,WUHU21623XXSP,2013-01-24 00:19:00,
2013-01-23 16:24:00,50.3,43.1,29.86,NNW,337,6.7,6.9,76,0.00,,,0.00,WUHU21623XXSP,2013-01-24 00:24:00,
2013-01-23 16:29:00,50.3,43.1,29.87,WNW,292,6.3,8.3,76,0.00,,,0.00,WUHU21623XXSP,2013-01-24 00:29:00,
2013-01-23 16:34:00,50.3,43.1,29.86,WNW,292,2.7,8.3,76,0.00,,,0.00,WUHU21623XXSP,2013-01-24 00:34:00,
2013-01-23 16:39:00,50.3,43.1,29.86,WNW,292,2.7,6.5,76,0.00,,,0.00,WUHU21623XXSP,2013-01-24 00:39:00,
2013-01-23 16:44:00,50.3,43.1,29.86,WNW,292,0.0,3.4,76,0.00,,,0.00,WUHU21623XXSP,2013-01-24 00:44:00,
2013-01-23 16:49:00,50.5,43.3,29.86,WNW,292,4.0,4.0,76,0.00,,,0.00,WUHU21623XXSP,2013-01-24 00:49:00,
2013-01-23 16:54:00,50.3,42.8,29.86,NW,315,1.8,5.1,75,0.00,,,0.00,WUHU21623XXSP,2013-01-24 00:54:00,
2013-01-23 16:59:00,50.2,42.7,29.86,NE,45,0.0,5.1,75,0.00,,,0.00,WUHU21623XXSP,2013-01-24 00:59:00,
2013-01-23 17:04:00,50.0,42.5,29.86,NE,45,0.0,4.0,75,0.00,,,0.00,WUHU21623XXSP,2013-01-24 01:04:00,
2013-01-23 17:09:00,50.0,42.5,29.86,NE,45,0.0,4.7,75,0.00,,,0.00,WUHU21623XXSP,2013-01-24 01:09:00,
2013-01-23 17:14:00,50.0,42.5,29.86,NE,45,0.0,4.7,75,0.00,,,0.00,WUHU21623XXSP,2013-01-24 01:14:00,
2013-01-23 17:19:00,50.2,42.7,29.86,South,180,3.6,5.4,75,0.00,,,0.00,WUHU21623XXSP,2013-01-24 01:19:00,
2013-01-23 17:24:00,49.8,42.3,29.87,SE,135,7.8,7.8,75,0.00,,,0.00,WUHU21623XXSP,2013-01-24 01:24:00,
2013-01-23 17:29:00,49.8,42.6,29.87,SE,135,6.0,8.9,76,0.00,,,0.00,WUHU21623XXSP,2013-01-24 01:29:00,
2013-01-23 17:33:00,49.6,42.7,29.87,SE,135,3.8,8.9,77,0.00,,,0.00,WUHU21623XXSP,2013-01-24 01:33:00,
2013-01-23 17:38:00,49.4,42.5,29.88,SE,135,7.6,8.1,77,0.00,,,0.00,WUHU21623XXSP,2013-01-24 01:38:00,
2013-01-23 17:43:00,49.4,42.5,29.88,SE,135,3.6,8.1,77,0.00,,,0.00,WUHU21623XXSP,2013-01-24 01:43:00,
2013-01-23 17:48:00,49.3,42.8,29.88,SE,135,1.6,7.8,78,0.00,,,0.00,WUHU21623XXSP,2013-01-24 01:48:00,
2013-01-23 17:53:00,49.3,42.8,29.88,SE,135,0.0,3.1,78,0.00,,,0.00,WUHU21623XXSP,2013-01-24 01:53:00,
2013-01-23 17:58:00,49.3,42.8,29.89,SE,135,0.0,2.0,78,0.00,,,0.00,WUHU21623XXSP,2013-01-24 01:58:00,
2013-01-23 18:03:00,49.3,42.8,29.89,SE,135,0.0,0.0,78,0.00,,,0.00,WUHU21623XXSP,2013-01-24 02:03:00,
2013-01-23 18:08:00,49.4,42.5,29.89,SE,135,2.7,2.7,77,0.00,,,0.00,WUHU21623XXSP,2013-01-24 02:08:00,
2013-01-23 18:13:00,49.1,42.3,29.89,SE,135,1.8,2.7,77,0.00,,,0.00,WUHU21623XXSP,2013-01-24 02:13:00,
2013-01-23 18:18:00,49.1,42.3,29.90,SE,135,0.0,2.9,77,0.00,,,0.00,WUHU21623XXSP,2013-01-24 02:18:00,
2013-01-23 18:23:00,49.3,42.5,29.89,SE,135,0.0,2.9,77,0.00,,,0.00,WUHU21623XXSP,2013-01-24 02:23:00,
2013-01-23 18:28:00,49.3,42.1,29.90,SE,135,0.0,1.6,76,0.00,,,0.00,WUHU21623XXSP,2013-01-24 02:28:00,
2013-01-23 18:33:00,49.1,41.9,29.89,NNE,22,5.6,5.6,76,0.00,,,0.00,WUHU21623XXSP,2013-01-24 02:33:00,
2013-01-23 18:38:00,48.9,41.7,29.89,North,0,2.5,7.4,76,0.00,,,0.00,WUHU21623XXSP,2013-01-24 02:38:00,
2013-01-23 18:44:00,48.9,41.7,29.88,North,0,6.9,7.8,76,0.00,,,0.00,WUHU21623XXSP,2013-01-24 02:44:00,
2013-01-23 18:49:00,48.9,42.1,29.89,North,0,0.0,7.8,77,0.00,,,0.00,WUHU21623XXSP,2013-01-24 02:49:00,
2013-01-23 18:54:00,48.7,41.9,29.88,North,0,4.7,7.4,77,0.00,,,0.00,WUHU21623XXSP,2013-01-24 02:54:00,
2013-01-23 18:59:00,48.7,41.9,29.89,SSE,157,1.6,11.0,77,0.00,,,0.00,WUHU21623XXSP,2013-01-24 02:59:00,
2013-01-23 19:04:00,48.7,41.9,29.88,East,90,0.0,11.0,77,0.00,,,0.00,WUHU21623XXSP,2013-01-24 03:04:00,
2013-01-23 19:08:00,48.7,42.2,29.89,SSE,157,0.0,9.2,78,0.00,,,0.00,WUHU21623XXSP,2013-01-24 03:08:00,
2013-01-23 19:13:00,48.7,42.2,29.89,SSE,157,0.0,9.2,78,0.00,,,0.00,WUHU21623XXSP,2013-01-24 03:13:00,
2013-01-23 19:18:00,48.7,42.2,29.89,SSE,157,0.0,2.2,78,0.00,,,0.00,WUHU21623XXSP,2013-01-24 03:18:00,
2013-01-23 19:23:00,48.7,42.2,29.89,SSE,157,0.0,2.2,78,0.00,,,0.00,WUHU21623XXSP,2013-01-24 03:23:00,
2013-01-23 19:29:00,48.7,41.9,29.89,SSE,157,0.0,0.0,77,0.00,,,0.00,WUHU21623XXSP,2013-01-24 03:29:00,
2013-01-23 19:33:00,48.5,41.7,29.89,NE,45,0.0,0.0,77,0.00,,,0.00,WUHU21623XXSP,2013-01-24 03:33:00,
2013-01-23 19:38:00,48.7,41.9,29.89,NE,45,0.0,0.0,77,0.00,,,0.00,WUHU21623XXSP,2013-01-24 03:38:00,
2013-01-23 19:44:00,48.7,41.9,29.89,NE,45,0.0,0.0,77,0.00,,,0.00,WUHU21623XXSP,2013-01-24 03:44:00,
2013-01-23 19:48:00,48.7,41.9,29.89,NE,45,0.0,0.0,77,0.00,,,0.00,WUHU21623XXSP,2013-01-24 03:48:00,
2013-01-23 19:53:00,48.7,41.5,29.89,NE,45,0.0,0.0,76,0.00,,,0.00,WUHU21623XXSP,2013-01-24 03:53:00,
2013-01-23 19:58:00,48.7,41.5,29.90,NE,45,0.0,0.0,76,0.00,,,0.00,WUHU21623XXSP,2013-01-24 03:58:00,
2013-01-23 20:03:00,48.5,41.3,29.90,NE,45,0.0,0.0,76,0.00,,,0.00,WUHU21623XXSP,2013-01-24 04:03:00,
2013-01-23 20:08:00,48.5,41.0,29.90,NE,45,0.0,0.0,75,0.00,,,0.00,WUHU21623XXSP,2013-01-24 04:08:00,
2013-01-23 20:13:00,48.4,41.2,29.90,NE,45,0.0,0.0,76,0.00,,,0.00,WUHU21623XXSP,2013-01-24 04:13:00,
2013-01-23 20:18:00,48.2,41.1,29.90,NNE,22,5.1,5.4,76,0.00,,,0.00,WUHU21623XXSP,2013-01-24 04:18:00,
2013-01-23 20:23:00,48.0,40.9,29.90,North,0,6.7,6.9,76,0.00,,,0.00,WUHU21623XXSP,2013-01-24 04:23:00,
2013-01-23 20:28:00,47.8,41.0,29.89,North,0,5.1,7.2,77,0.00,,,0.00,WUHU21623XXSP,2013-01-24 04:28:00,
2013-01-23 20:34:00,47.8,41.0,29.89,North,0,3.6,7.2,77,0.00,,,0.00,WUHU21623XXSP,2013-01-24 04:34:00,
2013-01-23 20:38:00,47.8,41.0,29.89,North,0,6.0,7.6,77,0.00,,,0.00,WUHU21623XXSP,2013-01-24 04:38:00,
2013-01-23 20:43:00,47.8,41.3,29.89,North,0,3.4,7.6,78,0.00,,,0.00,WUHU21623XXSP,2013-01-24 04:43:00,
2013-01-23 20:48:00,48.2,41.7,29.89,North,0,1.3,5.8,78,0.00,,,0.00,WUHU21623XXSP,2013-01-24 04:48:00,
2013-01-23 20:53:00,48.5,41.7,29.89,NNE,22,2.2,5.8,77,0.00,,,0.00,WUHU21623XXSP,2013-01-24 04:53:00,
2013-01-23 20:58:00,48.5,41.7,29.89,ENE,67,7.8,10.7,77,0.00,,,0.00,WUHU21623XXSP,2013-01-24 04:58:00,
2013-01-23 21:01:00,48.5,41.7,29.89,ENE,67,8.7,11.0,77,0.00,,,0.00,WUHU21623XXSP,2013-01-24 05:01:00,
2013-01-23 21:03:00,48.7,42.2,29.89,NE,45,5.8,12.5,78,0.00,,,0.00,WUHU21623XXSP,2013-01-24 05:03:00,
2013-01-23 21:08:00,48.7,42.2,29.90,NNE,22,11.0,13.0,78,0.00,,,0.00,WUHU21623XXSP,2013-01-24 05:08:00,
2013-01-23 21:13:00,48.7,42.2,29.89,NNE,22,9.2,13.0,78,0.00,,,0.00,WUHU21623XXSP,2013-01-24 05:13:00,
2013-01-23 21:18:00,48.7,42.2,29.89,NNE,22,9.2,16.1,78,0.00,,,0.00,WUHU21623XXSP,2013-01-24 05:18:00,
2013-01-23 21:23:00,48.5,42.0,29.89,NNE,22,10.5,16.1,78,0.00,,,0.00,WUHU21623XXSP,2013-01-24 05:23:00,
2013-01-23 21:28:00,48.5,42.0,29.88,NNE,22,13.4,23.0,78,0.00,,,0.00,WUHU21623XXSP,2013-01-24 05:28:00,
2013-01-23 21:33:00,48.4,41.9,29.88,NNE,13,15.3,23.0,78,0.00,,,0.00,WUHU21623XXSP,2013-01-24 05:33:00,
2013-01-23 21:38:00,48.2,41.7,29.89,NNE,22,15.9,25.7,78,0.00,,,0.00,WUHU21623XXSP,2013-01-24 05:38:00,
2013-01-23 21:43:00,48.2,41.7,29.89,North,0,12.8,25.7,78,0.00,,,0.00,WUHU21623XXSP,2013-01-24 05:43:00,
2013-01-23 21:48:00,47.8,41.6,29.90,SSE,157,6.7,21.3,79,0.00,,,0.00,WUHU21623XXSP,2013-01-24 05:48:00,
2013-01-23 21:53:00,47.8,41.6,29.90,SE,135,5.8,10.7,79,0.00,,,0.00,WUHU21623XXSP,2013-01-24 05:53:00,
2013-01-23 21:58:00,47.8,41.6,29.90,East,90,10.1,11.0,79,0.00,,,0.00,WUHU21623XXSP,2013-01-24 05:58:00,
2013-01-23 22:03:00,47.8,41.6,29.90,East,90,9.2,13.2,79,0.00,,,0.00,WUHU21623XXSP,2013-01-24 06:03:00,
2013-01-23 22:08:00,47.8,41.6,29.90,NE,45,8.5,15.9,79,0.00,,,0.00,WUHU21623XXSP,2013-01-24 06:08:00,
2013-01-23 22:13:00,47.6,41.4,29.90,ENE,67,0.0,15.9,79,0.00,,,0.00,WUHU21623XXSP,2013-01-24 06:13:00,
2013-01-23 22:18:00,47.8,41.6,29.90,NE,45,3.6,11.9,79,0.00,,,0.00,WUHU21623XXSP,2013-01-24 06:18:00,
2013-01-23 22:23:00,47.6,41.8,29.90,NNE,22,8.3,8.3,80,0.00,,,0.00,WUHU21623XXSP,2013-01-24 06:23:00,
2013-01-23 22:28:00,47.6,41.8,29.90,NE,45,10.5,10.5,80,0.00,,,0.00,WUHU21623XXSP,2013-01-24 06:28:00,
2013-01-23 22:33:00,47.6,41.8,29.89,ENE,67,6.7,13.4,80,0.00,,,0.00,WUHU21623XXSP,2013-01-24 06:33:00,
2013-01-23 22:38:00,47.6,41.8,29.90,East,90,1.3,13.4,80,0.00,,,0.00,WUHU21623XXSP,2013-01-24 06:38:00,
2013-01-23 22:43:00,47.8,42.0,29.90,East,90,0.0,8.1,80,0.00,,,0.00,WUHU21623XXSP,2013-01-24 06:43:00,
2013-01-23 22:48:00,47.8,42.0,29.90,NNE,22,6.0,9.6,80,0.00,,,0.00,WUHU21623XXSP,2013-01-24 06:48:00,
2013-01-23 22:53:00,47.8,42.0,29.91,NE,45,3.6,9.6,80,0.00,,,0.00,WUHU21623XXSP,2013-01-24 06:53:00,
2013-01-23 22:58:00,47.8,42.0,29.91,NE,45,6.5,12.1,80,0.00,,,0.00,WUHU21623XXSP,2013-01-24 06:58:00,
2013-01-23 23:03:00,47.8,42.0,29.92,NNE,22,1.6,12.1,80,0.00,,,0.00,WUHU21623XXSP,2013-01-24 07:03:00,
2013-01-23 23:08:00,47.8,42.0,29.91,NNE,22,11.0,11.4,80,0.00,,,0.00,WUHU21623XXSP,2013-01-24 07:08:00,
2013-01-23 23:13:00,47.8,42.0,29.91,NNE,22,7.4,12.3,80,0.00,,,0.00,WUHU21623XXSP,2013-01-24 07:13:00,
2013-01-23 23:18:00,47.8,41.6,29.92,North,0,6.9,12.3,79,0.00,,,0.00,WUHU21623XXSP,2013-01-24 07:18:00,
2013-01-23 23:23:00,47.6,41.4,29.92,NNE,22,2.7,11.4,79,0.00,,,0.00,WUHU21623XXSP,2013-01-24 07:23:00,
2013-01-23 23:28:00,47.8,41.6,29.92,NNE,22,0.0,8.1,79,0.00,,,0.00,WUHU21623XXSP,2013-01-24 07:28:00,
2013-01-23 23:33:00,47.8,41.6,29.92,North,0,2.9,3.8,79,0.00,,,0.00,WUHU21623XXSP,2013-01-24 07:33:00,
2013-01-23 23:38:00,47.8,41.3,29.91,NW,315,0.0,8.3,78,0.00,,,0.00,WUHU21623XXSP,2013-01-24 07:38:00,
2013-01-23 23:43:00,47.8,41.3,29.91,NW,315,0.0,8.3,78,0.00,,,0.00,WUHU21623XXSP,2013-01-24 07:43:00,
2013-01-23 23:48:00,47.8,41.3,29.91,NE,45,7.4,7.4,78,0.00,,,0.00,WUHU21623XXSP,2013-01-24 07:48:00,
2013-01-23 23:53:00,47.8,41.3,29.91,NE,45,2.5,7.4,78,0.00,,,0.00,WUHU21623XXSP,2013-01-24 07:53:00,
2013-01-23 23:58:00,47.8,41.3,29.91,NE,45,0.0,6.5,78,0.00,,,0.00,WUHU21623XXSP,2013-01-24 07:58:00,